createdAt,value
2022-11-06T00:03:39.531Z,15.85
2022-11-06T00:06:34.082Z,15.65
2022-11-06T00:09:02.956Z,10.85
2022-11-06T00:11:30.358Z,10.55
2022-11-06T00:13:57.479Z,13.75
2022-11-06T00:16:24.442Z,12.73
2022-11-06T00:18:51.281Z,13.40
2022-11-06T00:21:23.560Z,14.60
2022-11-06T00:23:51.171Z,8.32
2022-11-06T00:26:22.827Z,5.47
2022-11-06T00:28:49.997Z,4.38
2022-11-06T00:31:21.969Z,4.80
2022-11-06T00:33:48.992Z,2.63
2022-11-06T00:36:18.877Z,3.70
2022-11-06T00:38:45.918Z,5.35
2022-11-06T00:41:15.344Z,4.57
2022-11-06T00:43:43.121Z,8.38
2022-11-06T00:46:12.646Z,8.93
2022-11-06T00:48:40.956Z,12.85
2022-11-06T00:51:13.363Z,15.02
2022-11-06T00:53:40.330Z,9.95
2022-11-06T00:56:13.388Z,6.22
2022-11-06T00:58:40.615Z,5.38
2022-11-06T01:01:34.760Z,2.90
2022-11-06T01:04:13.215Z,4.13
2022-11-06T01:06:44.959Z,2.45
2022-11-06T01:09:14.856Z,2.00
2022-11-06T01:14:35.261Z,1.73
2022-11-06T01:17:01.995Z,1.98
2022-11-06T01:19:28.660Z,1.33
2022-11-06T01:21:55.423Z,1.13
2022-11-06T01:24:25.438Z,1.65
2022-11-06T01:27:24.197Z,2.55
2022-11-06T01:29:39.532Z,2.72
2022-11-06T01:32:06.684Z,4.95
2022-11-06T01:34:33.644Z,10.85
2022-11-06T01:37:00.406Z,11.00
2022-11-06T01:39:27.215Z,9.70
2022-11-06T01:41:54.434Z,6.40
2022-11-06T01:44:42.088Z,6.03
2022-11-06T01:47:35.486Z,4.90
2022-11-06T01:50:08.275Z,3.13
2022-11-06T01:52:35.844Z,4.93
2022-11-06T01:55:13.823Z,7.90
2022-11-06T02:00:08.840Z,4.20
2022-11-06T02:02:36.601Z,3.90
2022-11-06T02:05:03.737Z,3.25
2022-11-06T02:07:30.639Z,3.45
2022-11-06T02:09:57.295Z,2.92
2022-11-06T02:12:39.799Z,2.60
2022-11-06T02:15:37.293Z,5.35
2022-11-06T02:18:37.732Z,5.10
2022-11-06T02:21:25.930Z,4.55
2022-11-06T02:24:23.706Z,3.38
2022-11-06T02:27:19.837Z,4.53
2022-11-06T02:30:13.905Z,4.88
2022-11-06T02:32:56.950Z,4.32
2022-11-06T02:35:26.717Z,5.25
2022-11-06T02:37:58.507Z,3.53
2022-11-06T02:40:31.651Z,7.07
2022-11-06T02:43:00.454Z,6.97
2022-11-06T02:45:30.022Z,9.52
2022-11-06T02:47:59.008Z,7.22
2022-11-06T02:50:35.380Z,8.55
2022-11-06T02:53:07.804Z,5.80
2022-11-06T02:55:38.726Z,6.57
2022-11-06T02:58:14.444Z,8.00
2022-11-06T03:00:44.405Z,10.93
2022-11-06T03:03:33.082Z,15.00
2022-11-06T03:06:35.571Z,6.10
2022-11-06T03:09:09.826Z,3.10
2022-11-06T03:11:40.020Z,8.15
2022-11-06T03:14:19.795Z,8.95
2022-11-06T03:17:09.738Z,11.85
2022-11-06T03:19:55.637Z,16.55
2022-11-06T03:22:32.728Z,15.88
2022-11-06T03:25:14.240Z,18.97
2022-11-06T03:28:06.801Z,17.48
2022-11-06T03:30:38.842Z,19.30
2022-11-06T03:33:26.815Z,17.42
2022-11-06T03:36:01.848Z,13.85
2022-11-06T03:38:36.070Z,14.88
2022-11-06T03:41:32.051Z,15.77
2022-11-06T03:44:01.530Z,15.68
2022-11-06T03:46:30.218Z,14.05
2022-11-06T03:49:08.530Z,12.88
2022-11-06T03:51:46.282Z,8.63
2022-11-06T03:54:23.413Z,5.68
2022-11-06T03:57:04.976Z,1.97
2022-11-06T03:59:42.247Z,1.95
2022-11-06T04:02:09.912Z,2.92
2022-11-06T04:04:59.573Z,2.65
2022-11-06T04:07:34.616Z,1.52
2022-11-06T04:10:22.766Z,2.40
2022-11-06T04:13:10.792Z,2.28
2022-11-06T04:15:46.248Z,2.35
2022-11-06T04:18:14.651Z,2.95
2022-11-06T04:21:13.490Z,1.38
2022-11-06T04:24:07.600Z,2.28
2022-11-06T04:26:36.896Z,2.10
2022-11-06T04:29:06.309Z,2.47
2022-11-06T04:31:58.655Z,1.88
2022-11-06T04:34:29.822Z,1.60
2022-11-06T04:37:05.258Z,4.72
2022-11-06T04:40:03.115Z,1.77
2022-11-06T04:42:40.671Z,1.85
2022-11-06T04:45:21.450Z,1.92
2022-11-06T04:47:49.546Z,3.25
2022-11-06T04:50:19.031Z,1.45
2022-11-06T04:52:46.411Z,1.80
2022-11-06T04:57:39.727Z,2.15
2022-11-06T05:00:07.142Z,1.13
2022-11-06T05:05:00.479Z,1.85
2022-11-06T05:07:27.185Z,3.47
2022-11-06T05:09:53.919Z,1.58
2022-11-06T05:12:20.593Z,1.65
2022-11-06T05:14:47.258Z,2.58
2022-11-06T05:17:13.941Z,5.32
2022-11-06T05:19:40.622Z,1.60
2022-11-06T05:22:25.767Z,2.25
2022-11-06T05:24:52.431Z,2.30
2022-11-06T05:27:19.134Z,2.08
2022-11-06T05:29:46.551Z,1.95
2022-11-06T05:34:39.896Z,1.88
2022-11-06T05:37:06.572Z,1.65
2022-11-06T05:39:35.584Z,1.60
2022-11-06T05:42:05.790Z,1.88
2022-11-06T05:44:32.543Z,2.10
2022-11-06T05:46:59.222Z,1.15
2022-11-06T05:49:25.884Z,2.42
2022-11-06T05:51:52.573Z,2.05
2022-11-06T05:54:19.253Z,1.90
2022-11-06T05:56:45.965Z,1.60
2022-11-06T05:59:13.005Z,2.38
2022-11-06T06:01:39.866Z,2.78
2022-11-06T06:04:06.659Z,2.20
2022-11-06T06:06:33.952Z,1.27
2022-11-06T06:09:00.627Z,1.98
2022-11-06T06:11:27.516Z,6.45
2022-11-06T06:13:54.215Z,5.03
2022-11-06T06:16:20.927Z,1.88
2022-11-06T06:18:50.924Z,8.75
2022-11-06T06:21:17.895Z,2.40
2022-11-06T06:23:44.722Z,3.33
2022-11-06T06:26:11.427Z,5.63
2022-11-06T06:28:38.091Z,2.00
2022-11-06T06:31:06.216Z,1.85
2022-11-06T06:33:33.381Z,2.13
2022-11-06T06:36:03.801Z,2.10
2022-11-06T06:38:30.741Z,2.05
2022-11-06T06:41:04.447Z,6.57
2022-11-06T06:43:31.751Z,4.63
2022-11-06T06:46:03.982Z,2.65
2022-11-06T06:48:31.224Z,2.75
2022-11-06T06:51:01.950Z,2.78
2022-11-06T06:53:29.490Z,2.42
2022-11-06T06:55:59.389Z,3.15
2022-11-06T06:58:26.351Z,2.85
2022-11-06T07:00:53.142Z,3.42
2022-11-06T07:03:19.811Z,2.67
2022-11-06T07:05:47.139Z,3.88
2022-11-06T07:10:41.169Z,3.22
2022-11-06T07:13:07.840Z,3.75
2022-11-06T07:15:34.688Z,4.22
2022-11-06T07:18:02.931Z,2.45
2022-11-06T07:20:30.034Z,3.40
2022-11-06T07:22:57.988Z,3.13
2022-11-06T07:25:26.016Z,2.60
2022-11-06T07:27:52.673Z,3.42
2022-11-06T07:30:19.464Z,3.30
2022-11-06T07:32:46.212Z,3.85
2022-11-06T07:35:12.886Z,3.55
2022-11-06T07:37:39.535Z,3.40
2022-11-06T07:40:07.044Z,5.80
2022-11-06T07:42:33.726Z,5.72
2022-11-06T07:45:03.609Z,5.43
2022-11-06T07:47:30.838Z,4.50
2022-11-06T07:49:57.545Z,4.00
2022-11-06T07:52:24.224Z,4.57
2022-11-06T07:54:50.902Z,3.22
2022-11-06T07:57:17.636Z,3.50
2022-11-06T07:59:44.308Z,4.95
2022-11-06T08:02:12.952Z,8.45
2022-11-06T08:04:40.159Z,4.25
2022-11-06T08:07:07.036Z,4.68
2022-11-06T08:09:33.727Z,4.97
2022-11-06T08:12:00.399Z,5.25
2022-11-06T08:14:27.082Z,5.72
2022-11-06T08:16:53.962Z,6.22
2022-11-06T08:19:20.617Z,6.38
2022-11-06T08:21:47.304Z,6.93
2022-11-06T08:24:19.037Z,5.35
2022-11-06T08:26:48.325Z,4.65
2022-11-06T08:29:15.307Z,9.82
2022-11-06T08:31:42.217Z,6.55
2022-11-06T08:34:09.347Z,9.95
2022-11-06T08:36:45.598Z,9.82
2022-11-06T08:39:16.460Z,9.85
2022-11-06T08:41:44.915Z,7.85
2022-11-06T08:44:11.698Z,8.98
2022-11-06T08:46:38.386Z,6.90
2022-11-06T08:49:05.097Z,7.43
2022-11-06T08:51:31.784Z,6.85
2022-11-06T08:53:58.695Z,8.20
2022-11-06T08:56:25.456Z,4.10
2022-11-06T08:58:55.534Z,6.72
2022-11-06T09:01:24.004Z,5.18
2022-11-06T09:03:51.074Z,3.28
2022-11-06T09:06:18.076Z,3.67
2022-11-06T09:08:44.758Z,5.85
2022-11-06T09:11:12.024Z,4.30
2022-11-06T09:13:38.728Z,4.82
2022-11-06T09:16:08.956Z,3.35
2022-11-06T09:18:38.108Z,4.35
2022-11-06T09:21:05.049Z,3.67
2022-11-06T09:23:31.968Z,2.75
2022-11-06T09:25:58.730Z,6.03
2022-11-06T09:28:25.415Z,5.45
2022-11-06T09:30:52.128Z,7.07
2022-11-06T09:33:19.280Z,4.93
2022-11-06T09:38:15.580Z,3.22
2022-11-06T09:40:53.145Z,3.85
2022-11-06T09:44:03.459Z,2.53
2022-11-06T09:46:40.288Z,3.65
2022-11-06T09:49:22.154Z,4.35
2022-11-06T09:51:52.680Z,4.10
2022-11-06T09:54:25.857Z,6.25
2022-11-06T09:56:59.523Z,5.43
2022-11-06T09:59:26.861Z,3.78
2022-11-06T10:04:49.510Z,10.25
2022-11-06T10:07:36.767Z,17.25
2022-11-06T10:10:07.899Z,7.90
2022-11-06T10:12:42.455Z,3.92
2022-11-06T10:15:38.746Z,9.57
2022-11-06T10:18:23.643Z,2.78
2022-11-06T10:20:57.038Z,3.45
2022-11-06T10:23:42.256Z,3.65
2022-11-06T10:26:17.161Z,3.40
2022-11-06T10:29:04.867Z,3.25
2022-11-06T10:31:56.189Z,2.10
2022-11-06T10:34:29.629Z,2.45
2022-11-06T10:37:06.167Z,2.75
2022-11-06T10:39:35.498Z,2.38
2022-11-06T10:42:16.276Z,1.92
2022-11-06T10:44:52.155Z,2.22
2022-11-06T10:47:24.779Z,3.15
2022-11-06T10:49:55.924Z,4.18
2022-11-06T10:52:25.692Z,2.88
2022-11-06T10:54:58.119Z,3.33
2022-11-06T10:57:37.765Z,2.72
2022-11-06T11:00:05.811Z,2.78
2022-11-06T11:02:36.539Z,3.70
2022-11-06T11:05:11.702Z,2.10
2022-11-06T11:07:38.695Z,4.25
2022-11-06T11:10:24.865Z,3.10
2022-11-06T11:12:54.509Z,2.78
2022-11-06T11:15:30.858Z,3.25
2022-11-06T11:18:08.630Z,2.22
2022-11-06T11:20:37.481Z,1.70
2022-11-06T11:23:14.421Z,1.13
2022-11-06T11:25:44.929Z,3.20
2022-11-06T11:28:34.204Z,4.97
2022-11-06T11:31:14.077Z,1.00
2022-11-06T11:33:49.725Z,1.60
2022-11-06T11:36:16.760Z,1.40
2022-11-06T11:38:44.088Z,5.90
2022-11-06T11:44:03.940Z,2.47
2022-11-06T11:46:31.513Z,2.17
2022-11-06T11:48:59.252Z,1.20
2022-11-06T11:51:28.659Z,1.85
2022-11-06T11:54:12.825Z,2.08
2022-11-06T11:57:05.356Z,1.52
2022-11-06T11:59:45.915Z,1.42
2022-11-06T12:02:34.602Z,1.67
2022-11-06T12:05:12.263Z,1.20
2022-11-06T12:07:47.398Z,3.13
2022-11-06T12:10:35.016Z,3.20
2022-11-06T12:13:05.516Z,3.58
2022-11-06T12:15:44.352Z,2.25
2022-11-06T12:18:23.315Z,2.78
2022-11-06T12:20:58.820Z,2.10
2022-11-06T12:23:29.190Z,2.08
2022-11-06T12:26:04.227Z,2.13
2022-11-06T12:28:35.673Z,4.22
2022-11-06T12:31:17.793Z,1.70
2022-11-06T12:34:05.493Z,1.98
2022-11-06T12:36:39.443Z,1.40
2022-11-06T12:39:23.898Z,2.00
2022-11-06T12:41:52.473Z,1.50
2022-11-06T12:44:19.255Z,1.13
2022-11-06T12:47:04.726Z,4.25
2022-11-06T12:49:49.456Z,0.73
2022-11-06T12:52:25.294Z,1.23
2022-11-06T12:55:15.771Z,1.27
2022-11-06T12:57:54.791Z,0.93
2022-11-06T13:00:30.185Z,1.55
2022-11-06T13:03:35.890Z,1.60
2022-11-06T13:06:32.447Z,0.60
2022-11-06T13:13:01.998Z,1.35
2022-11-06T13:15:36.937Z,1.48
2022-11-06T13:18:12.196Z,1.15
2022-11-06T13:20:49.384Z,1.70
2022-11-06T13:23:25.255Z,1.33
2022-11-06T13:26:13.250Z,2.17
2022-11-06T13:28:47.983Z,1.33
2022-11-06T13:31:18.866Z,2.33
2022-11-06T13:33:54.362Z,1.02
2022-11-06T13:36:21.434Z,0.73
2022-11-06T13:38:55.106Z,1.38
2022-11-06T13:41:27.326Z,2.92
2022-11-06T13:44:11.115Z,1.38
2022-11-06T13:47:04.802Z,2.42
2022-11-06T13:49:31.459Z,1.00
2022-11-06T13:52:09.356Z,4.00
2022-11-06T13:55:02.355Z,4.03
2022-11-06T13:57:47.112Z,1.80
2022-11-06T14:00:54.627Z,0.85
2022-11-06T14:03:55.331Z,1.17
2022-11-06T14:06:31.690Z,0.98
2022-11-06T14:09:17.023Z,1.35
2022-11-06T14:11:45.153Z,1.95
2022-11-06T14:14:25.543Z,1.52
2022-11-06T14:17:17.248Z,1.92
2022-11-06T14:19:50.905Z,1.63
2022-11-06T14:22:18.142Z,1.38
2022-11-06T14:24:44.822Z,0.90
2022-11-06T14:27:22.340Z,1.45
2022-11-06T14:30:05.488Z,4.63
2022-11-06T14:32:41.027Z,2.72
2022-11-06T14:35:29.589Z,1.88
2022-11-06T14:40:43.765Z,0.57
2022-11-06T14:43:25.452Z,2.17
2022-11-06T14:46:15.361Z,1.33
2022-11-06T14:48:52.027Z,2.15
2022-11-06T14:51:26.391Z,7.25
2022-11-06T14:53:59.799Z,4.47
2022-11-06T14:56:30.577Z,2.92
2022-11-06T14:59:05.742Z,4.28
2022-11-06T15:01:35.198Z,3.40
2022-11-06T15:04:06.098Z,3.45
2022-11-06T15:06:32.785Z,3.75
2022-11-06T15:09:03.594Z,3.17
2022-11-06T15:11:30.243Z,1.42
2022-11-06T15:14:14.174Z,2.35
2022-11-06T15:16:45.164Z,1.70
2022-11-06T15:19:17.400Z,5.53
2022-11-06T15:21:52.772Z,4.35
2022-11-06T15:24:32.155Z,5.00
2022-11-06T15:27:07.352Z,2.60
2022-11-06T15:29:39.664Z,4.45
2022-11-06T15:32:12.674Z,4.82
2022-11-06T15:34:44.935Z,4.10
2022-11-06T15:37:24.275Z,3.38
2022-11-06T15:39:59.155Z,2.90
2022-11-06T15:42:33.967Z,2.85
2022-11-06T15:45:15.502Z,2.47
2022-11-06T15:48:02.916Z,3.67
2022-11-06T15:50:34.378Z,3.20
2022-11-06T15:53:30.356Z,11.93
2022-11-06T15:56:01.978Z,5.95
2022-11-06T15:58:36.430Z,2.80
2022-11-06T16:01:05.843Z,2.47
2022-11-06T16:03:52.169Z,3.45
2022-11-06T16:06:19.129Z,4.78
2022-11-06T16:08:46.834Z,3.42
2022-11-06T16:11:20.303Z,3.85
2022-11-06T16:13:47.719Z,2.38
2022-11-06T16:16:40.813Z,6.43
2022-11-06T16:19:31.794Z,3.05
2022-11-06T16:22:03.375Z,2.55
2022-11-06T16:24:47.087Z,3.60
2022-11-06T16:27:14.943Z,6.60
2022-11-06T16:29:51.445Z,5.18
2022-11-06T16:32:22.120Z,4.53
2022-11-06T16:34:50.019Z,4.97
2022-11-06T16:37:16.634Z,5.30
2022-11-06T16:39:49.168Z,9.77
2022-11-06T16:42:24.546Z,14.70
2022-11-06T16:45:10.911Z,17.95
2022-11-06T16:47:37.700Z,13.90
2022-11-06T16:50:24.693Z,8.43
2022-11-06T16:52:54.596Z,10.95
2022-11-06T16:55:28.391Z,29.40
2022-11-06T16:57:58.049Z,12.32
2022-11-06T17:00:31.048Z,13.77
2022-11-06T17:03:01.065Z,3.63
2022-11-06T17:05:33.782Z,3.88
2022-11-06T17:08:18.612Z,6.10
2022-11-06T17:12:10.561Z,6.65
2022-11-06T17:14:37.272Z,6.15
2022-11-06T17:17:04.407Z,7.43
2022-11-06T17:19:31.130Z,5.63
2022-11-06T17:21:58.147Z,8.45
2022-11-06T17:24:40.592Z,6.75
2022-11-06T17:27:07.293Z,8.13
2022-11-06T17:29:36.266Z,5.43
2022-11-06T17:32:03.450Z,4.80
2022-11-06T17:34:30.127Z,4.82
2022-11-06T17:36:56.896Z,3.78
2022-11-06T17:39:23.669Z,4.30
2022-11-06T17:41:50.468Z,6.82
2022-11-06T17:44:17.353Z,4.60
2022-11-06T17:46:46.586Z,4.32
2022-11-06T17:49:18.158Z,3.22
2022-11-06T17:52:00.251Z,4.00
2022-11-06T17:54:31.931Z,3.90
2022-11-06T17:57:03.702Z,7.13
2022-11-06T17:59:31.148Z,4.10
2022-11-06T18:01:58.047Z,3.03
2022-11-06T18:04:27.600Z,3.65
2022-11-06T18:06:54.619Z,6.70
2022-11-06T18:09:22.615Z,6.00
2022-11-06T18:11:51.061Z,7.70
2022-11-06T18:14:17.891Z,2.65
2022-11-06T18:16:44.979Z,5.15
2022-11-06T18:19:15.024Z,3.33
2022-11-06T18:21:41.733Z,4.50
2022-11-06T18:24:08.703Z,2.67
2022-11-06T18:26:37.226Z,6.75
2022-11-06T18:29:05.225Z,3.35
2022-11-06T18:31:32.118Z,3.33
2022-11-06T18:33:58.802Z,6.68
2022-11-06T18:36:25.557Z,8.68
2022-11-06T18:38:52.343Z,7.53
2022-11-06T18:41:21.067Z,6.25
2022-11-06T18:43:47.800Z,3.40
2022-11-06T18:46:16.822Z,2.85
2022-11-06T18:48:44.159Z,7.80
2022-11-06T18:53:41.188Z,7.10
2022-11-06T18:56:16.710Z,7.18
2022-11-06T18:58:44.558Z,6.60
2022-11-06T19:01:17.422Z,5.90
2022-11-06T19:03:44.504Z,6.72
2022-11-06T19:06:13.910Z,6.15
2022-11-06T19:08:40.894Z,6.93
2022-11-06T19:15:20.868Z,6.63
2022-11-06T19:17:47.531Z,4.90
2022-11-06T19:20:15.190Z,7.85
2022-11-06T19:22:42.075Z,6.05
2022-11-06T19:25:09.212Z,5.65
2022-11-06T19:27:35.878Z,6.50
2022-11-06T19:30:02.585Z,4.25
2022-11-06T19:32:30.054Z,4.22
2022-11-06T19:34:56.717Z,3.42
2022-11-06T19:37:23.824Z,5.60
2022-11-06T19:39:50.505Z,5.78
2022-11-06T19:42:17.159Z,5.20
2022-11-06T19:44:43.883Z,5.30
2022-11-06T19:47:10.689Z,4.60
2022-11-06T19:49:37.404Z,6.20
2022-11-06T19:52:41.451Z,6.28
2022-11-06T19:54:51.245Z,5.03
2022-11-06T19:57:37.901Z,6.82
2022-11-06T20:00:11.006Z,3.83
2022-11-06T20:02:38.853Z,3.13
2022-11-06T20:05:07.454Z,7.50
2022-11-06T20:07:34.127Z,3.85
2022-11-06T20:10:02.773Z,9.85
2022-11-06T20:12:29.512Z,4.78
2022-11-06T20:14:56.224Z,5.43
2022-11-06T20:17:22.946Z,14.70
2022-11-06T20:19:49.658Z,14.98
2022-11-06T20:22:16.472Z,12.77
2022-11-06T20:24:43.173Z,11.70
2022-11-06T20:27:11.509Z,16.17
2022-11-06T20:29:38.485Z,17.48
2022-11-06T20:32:05.557Z,16.38
2022-11-06T20:34:32.268Z,5.72
2022-11-06T20:36:59.320Z,4.32
2022-11-06T20:39:26.003Z,4.88
2022-11-06T20:41:52.925Z,7.97
2022-11-06T20:44:19.617Z,5.85
2022-11-06T20:46:47.963Z,4.20
2022-11-06T20:49:14.980Z,4.00
2022-11-06T20:52:07.360Z,3.08
2022-11-06T20:54:28.559Z,2.35
2022-11-06T20:56:55.236Z,4.80
2022-11-06T20:59:22.269Z,4.25
2022-11-06T21:01:49.410Z,4.43
2022-11-06T21:04:16.540Z,2.58
2022-11-06T21:06:43.371Z,4.10
2022-11-06T21:09:10.119Z,7.20
2022-11-06T21:11:36.790Z,5.25
2022-11-06T21:14:03.959Z,3.60
2022-11-06T21:16:33.974Z,3.42
2022-11-06T21:19:02.202Z,3.58
2022-11-06T21:21:33.014Z,3.63
2022-11-06T21:24:01.536Z,4.82
2022-11-06T21:26:30.847Z,3.72
2022-11-06T21:28:58.089Z,5.32
2022-11-06T21:31:27.420Z,3.33
2022-11-06T21:33:56.294Z,4.43
2022-11-06T21:36:26.145Z,4.32
2022-11-06T21:38:54.229Z,4.93
2022-11-06T21:41:24.222Z,3.03
2022-11-06T21:43:50.947Z,5.88
2022-11-06T21:46:19.372Z,4.68
2022-11-06T21:48:47.398Z,5.53
2022-11-06T21:51:20.689Z,4.35
2022-11-06T21:54:06.787Z,4.68
2022-11-06T21:56:34.461Z,5.20
2022-11-06T21:59:02.296Z,7.10
2022-11-06T22:01:30.352Z,3.58
2022-11-06T22:03:57.560Z,4.35
2022-11-06T22:06:25.593Z,4.57
2022-11-06T22:08:53.896Z,6.60
2022-11-06T22:11:27.334Z,6.40
2022-11-06T22:13:56.602Z,4.70
2022-11-06T22:16:26.676Z,4.20
2022-11-06T22:18:53.844Z,5.38
2022-11-06T22:21:24.887Z,4.68
2022-11-06T22:23:51.876Z,4.07
2022-11-06T22:26:23.780Z,3.83
2022-11-06T22:28:55.164Z,3.53
2022-11-06T22:31:22.162Z,4.43
2022-11-06T22:33:53.397Z,3.35
2022-11-06T22:36:21.676Z,6.10
2022-11-06T22:38:49.257Z,4.43
2022-11-06T22:41:18.388Z,4.93
2022-11-06T22:43:45.073Z,4.82
2022-11-06T22:46:15.658Z,5.30
2022-11-06T22:48:43.013Z,4.10
2022-11-06T22:51:12.987Z,4.90
2022-11-06T22:53:40.073Z,5.85
2022-11-06T22:56:07.696Z,5.70
2022-11-06T22:58:34.594Z,6.53
2022-11-06T23:01:01.621Z,4.70
2022-11-06T23:03:30.112Z,5.10
2022-11-06T23:05:58.158Z,7.22
2022-11-06T23:08:26.328Z,3.70
2022-11-06T23:10:53.951Z,4.28
2022-11-06T23:13:20.760Z,3.97
2022-11-06T23:15:47.463Z,5.78
2022-11-06T23:18:14.787Z,3.67
2022-11-06T23:23:08.751Z,2.90
2022-11-06T23:25:35.731Z,4.53
2022-11-06T23:28:02.880Z,4.15
2022-11-06T23:30:32.845Z,6.90
2022-11-06T23:32:59.777Z,3.10
2022-11-06T23:35:32.216Z,3.92
2022-11-06T23:37:59.300Z,2.33
2022-11-06T23:40:26.256Z,5.45
2022-11-06T23:42:54.666Z,5.38
2022-11-06T23:45:39.830Z,6.55
2022-11-06T23:48:13.187Z,7.20
2022-11-06T23:50:40.674Z,6.75
2022-11-06T23:53:07.776Z,3.25
2022-11-06T23:55:34.506Z,5.40
2022-11-06T23:58:01.188Z,3.42
